sensor_id;sensor_type;location;lat;lon;timestamp;pressure;altitude;pressure_sealevel;temperature;humidity
64298;BME280;50639;53.270;7.956;2023-05-22T00:01:14;101608.69;;;18.96;69.06
64298;BME280;50639;53.270;7.956;2023-05-22T00:03:45;101604.94;;;18.97;69.45
64298;BME280;50639;53.270;7.956;2023-05-22T00:06:13;101607.88;;;18.96;69.36
64298;BME280;50639;53.270;7.956;2023-05-22T00:08:40;101603.50;;;18.95;69.71
64298;BME280;50639;53.270;7.956;2023-05-22T00:11:06;101603.28;;;18.96;69.21
64298;BME280;50639;53.270;7.956;2023-05-22T00:13:32;101599.34;;;18.92;69.56
64298;BME280;50639;53.270;7.956;2023-05-22T00:15:57;101600.66;;;18.90;69.61
64298;BME280;50639;53.270;7.956;2023-05-22T00:18:23;101591.47;;;18.91;69.24
64298;BME280;50639;53.270;7.956;2023-05-22T00:20:49;101588.47;;;18.81;69.85
64298;BME280;50639;53.270;7.956;2023-05-22T00:23:16;101580.50;;;18.86;69.39
64298;BME280;50639;53.270;7.956;2023-05-22T00:25:41;101593.41;;;18.84;69.84
64298;BME280;50639;53.270;7.956;2023-05-22T00:28:13;101585.78;;;18.81;69.74
64298;BME280;50639;53.270;7.956;2023-05-22T00:30:44;101586.06;;;18.72;70.24
64298;BME280;50639;53.270;7.956;2023-05-22T00:33:20;101580.50;;;18.67;69.86
64298;BME280;50639;53.270;7.956;2023-05-22T00:35:46;101576.34;;;18.65;70.01
64298;BME280;50639;53.270;7.956;2023-05-22T00:38:34;101569.31;;;18.64;70.27
64298;BME280;50639;53.270;7.956;2023-05-22T00:41:06;101563.50;;;18.60;70.08
64298;BME280;50639;53.270;7.956;2023-05-22T00:43:37;101562.44;;;18.61;70.06
64298;BME280;50639;53.270;7.956;2023-05-22T00:46:03;101559.75;;;18.61;69.99
64298;BME280;50639;53.270;7.956;2023-05-22T00:48:28;101559.13;;;18.59;69.93
64298;BME280;50639;53.270;7.956;2023-05-22T00:50:56;101556.03;;;18.56;69.98
64298;BME280;50639;53.270;7.956;2023-05-22T00:53:23;101551.44;;;18.56;69.99
64298;BME280;50639;53.270;7.956;2023-05-22T00:55:53;101548.16;;;18.54;70.14
64298;BME280;50639;53.270;7.956;2023-05-22T00:58:20;101552.50;;;18.55;70.13
64298;BME280;50639;53.270;7.956;2023-05-22T01:00:46;101552.06;;;18.58;69.86
64298;BME280;50639;53.270;7.956;2023-05-22T01:03:16;101549.38;;;18.58;69.80
64298;BME280;50639;53.270;7.956;2023-05-22T01:05:51;101542.28;;;18.57;70.24
64298;BME280;50639;53.270;7.956;2023-05-22T01:08:18;101543.94;;;18.58;69.80
64298;BME280;50639;53.270;7.956;2023-05-22T01:10:43;101545.00;;;18.57;69.67
64298;BME280;50639;53.270;7.956;2023-05-22T01:13:45;101539.63;;;18.51;70.33
64298;BME280;50639;53.270;7.956;2023-05-22T01:19:48;101545.28;;;18.49;70.09
64298;BME280;50639;53.270;7.956;2023-05-22T01:25:33;101541.81;;;18.42;69.98
64298;BME280;50639;53.270;7.956;2023-05-22T01:31:12;101541.50;;;18.32;70.61
64298;BME280;50639;53.270;7.956;2023-05-22T01:33:51;101539.31;;;18.22;71.01
64298;BME280;50639;53.270;7.956;2023-05-22T01:36:20;101538.47;;;18.22;70.96
64298;BME280;50639;53.270;7.956;2023-05-22T01:38:50;101541.25;;;18.15;70.89
64298;BME280;50639;53.270;7.956;2023-05-22T01:41:17;101536.53;;;18.11;70.92
64298;BME280;50639;53.270;7.956;2023-05-22T01:43:46;101539.66;;;18.08;70.82
64298;BME280;50639;53.270;7.956;2023-05-22T01:46:11;101529.75;;;18.01;71.15
64298;BME280;50639;53.270;7.956;2023-05-22T01:48:37;101533.56;;;17.94;71.41
64298;BME280;50639;53.270;7.956;2023-05-22T01:51:15;101531.13;;;17.86;71.96
64298;BME280;50639;53.270;7.956;2023-05-22T01:53:55;101525.13;;;17.84;71.71
64298;BME280;50639;53.270;7.956;2023-05-22T01:56:27;101534.72;;;17.80;71.59
64298;BME280;50639;53.270;7.956;2023-05-22T02:01:49;101525.44;;;17.69;71.80
64298;BME280;50639;53.270;7.956;2023-05-22T02:04:18;101523.81;;;17.61;71.98
64298;BME280;50639;53.270;7.956;2023-05-22T02:06:45;101504.34;;;17.53;72.27
64298;BME280;50639;53.270;7.956;2023-05-22T02:09:13;101509.38;;;17.43;72.56
64298;BME280;50639;53.270;7.956;2023-05-22T02:11:40;101510.31;;;17.30;73.38
64298;BME280;50639;53.270;7.956;2023-05-22T02:14:06;101509.31;;;17.24;73.50
64298;BME280;50639;53.270;7.956;2023-05-22T02:16:33;101513.03;;;17.30;73.12
64298;BME280;50639;53.270;7.956;2023-05-22T02:19:00;101505.78;;;17.24;73.22
64298;BME280;50639;53.270;7.956;2023-05-22T02:21:33;101506.28;;;17.14;73.23
64298;BME280;50639;53.270;7.956;2023-05-22T02:24:01;101508.97;;;17.14;73.43
64298;BME280;50639;53.270;7.956;2023-05-22T02:26:27;101504.63;;;17.13;73.46
64298;BME280;50639;53.270;7.956;2023-05-22T02:28:52;101509.22;;;17.06;73.53
64298;BME280;50639;53.270;7.956;2023-05-22T02:31:18;101509.22;;;17.06;73.49
64298;BME280;50639;53.270;7.956;2023-05-22T02:33:44;101507.56;;;17.05;73.52
64298;BME280;50639;53.270;7.956;2023-05-22T02:36:09;101505.09;;;17.04;73.62
64298;BME280;50639;53.270;7.956;2023-05-22T02:38:37;101505.50;;;17.01;73.69
64298;BME280;50639;53.270;7.956;2023-05-22T02:41:03;101510.72;;;16.96;73.72
64298;BME280;50639;53.270;7.956;2023-05-22T02:43:28;101500.56;;;16.91;73.73
64298;BME280;50639;53.270;7.956;2023-05-22T02:45:54;101504.09;;;16.91;73.88
64298;BME280;50639;53.270;7.956;2023-05-22T02:48:20;101509.72;;;16.90;74.31
64298;BME280;50639;53.270;7.956;2023-05-22T02:50:46;101505.13;;;16.90;73.85
64298;BME280;50639;53.270;7.956;2023-05-22T02:53:15;101508.47;;;16.92;73.32
64298;BME280;50639;53.270;7.956;2023-05-22T02:55:41;101515.09;;;16.97;73.29
64298;BME280;50639;53.270;7.956;2023-05-22T02:58:18;101519.41;;;16.98;73.44
64298;BME280;50639;53.270;7.956;2023-05-22T03:00:47;101511.31;;;16.98;73.21
64298;BME280;50639;53.270;7.956;2023-05-22T03:03:19;101513.38;;;17.02;73.30
64298;BME280;50639;53.270;7.956;2023-05-22T03:05:46;101517.13;;;17.01;73.06
64298;BME280;50639;53.270;7.956;2023-05-22T03:08:16;101503.22;;;16.98;73.46
64298;BME280;50639;53.270;7.956;2023-05-22T03:10:44;101503.22;;;16.98;73.10
64298;BME280;50639;53.270;7.956;2023-05-22T03:13:14;101509.06;;;16.95;73.70
64298;BME280;50639;53.270;7.956;2023-05-22T03:15:42;101501.81;;;16.95;73.09
64298;BME280;50639;53.270;7.956;2023-05-22T03:18:16;101500.16;;;16.94;73.71
64298;BME280;50639;53.270;7.956;2023-05-22T03:20:43;101500.97;;;16.95;73.38
64298;BME280;50639;53.270;7.956;2023-05-22T03:23:13;101505.13;;;16.97;73.44
64298;BME280;50639;53.270;7.956;2023-05-22T03:25:42;101504.31;;;16.97;73.27
64298;BME280;50639;53.270;7.956;2023-05-22T03:28:11;101505.13;;;16.97;73.41
64298;BME280;50639;53.270;7.956;2023-05-22T03:30:40;101500.09;;;17.01;73.16
64298;BME280;50639;53.270;7.956;2023-05-22T03:33:15;101508.22;;;17.01;73.08
64298;BME280;50639;53.270;7.956;2023-05-22T03:35:42;101510.06;;;17.00;73.18
64298;BME280;50639;53.270;7.956;2023-05-22T03:38:15;101498.25;;;17.01;73.19
64298;BME280;50639;53.270;7.956;2023-05-22T03:40:45;101495.97;;;16.98;73.08
64298;BME280;50639;53.270;7.956;2023-05-22T03:43:19;101493.88;;;17.00;73.49
64298;BME280;50639;53.270;7.956;2023-05-22T03:45:46;101498.84;;;17.03;73.29
64298;BME280;50639;53.270;7.956;2023-05-22T03:48:16;101502.19;;;17.05;73.22
64298;BME280;50639;53.270;7.956;2023-05-22T03:50:52;101500.31;;;17.06;72.99
64298;BME280;50639;53.270;7.956;2023-05-22T03:53:18;101502.56;;;17.09;73.24
64298;BME280;50639;53.270;7.956;2023-05-22T03:55:45;101500.16;;;16.94;73.78
64298;BME280;50639;53.270;7.956;2023-05-22T03:58:14;101492.63;;;17.03;73.23
64298;BME280;50639;53.270;7.956;2023-05-22T04:00:41;101489.88;;;17.09;73.39
64298;BME280;50639;53.270;7.956;2023-05-22T04:03:13;101492.16;;;17.12;73.35
64298;BME280;50639;53.270;7.956;2023-05-22T04:05:48;101500.03;;;17.14;72.97
64298;BME280;50639;53.270;7.956;2023-05-22T04:08:14;101497.09;;;17.15;73.01
64298;BME280;50639;53.270;7.956;2023-05-22T04:10:42;101497.72;;;17.17;72.84
64298;BME280;50639;53.270;7.956;2023-05-22T04:13:14;101504.34;;;17.21;72.84
64298;BME280;50639;53.270;7.956;2023-05-22T04:15:41;101503.91;;;17.24;72.58
64298;BME280;50639;53.270;7.956;2023-05-22T04:18:12;101493.34;;;17.23;72.72
64298;BME280;50639;53.270;7.956;2023-05-22T04:20:40;101503.31;;;17.22;72.86
64298;BME280;50639;53.270;7.956;2023-05-22T04:23:07;101504.16;;;17.23;73.04
64298;BME280;50639;53.270;7.956;2023-05-22T04:25:32;101502.03;;;17.25;72.64
64298;BME280;50639;53.270;7.956;2023-05-22T04:27:59;101506.78;;;17.29;72.35
64298;BME280;50639;53.270;7.956;2023-05-22T04:30:29;101490.75;;;17.35;72.38
64298;BME280;50639;53.270;7.956;2023-05-22T04:32:55;101491.38;;;17.37;72.45
64298;BME280;50639;53.270;7.956;2023-05-22T04:35:21;101494.47;;;17.40;72.09
64298;BME280;50639;53.270;7.956;2023-05-22T04:37:47;101498.38;;;17.44;72.11
64298;BME280;50639;53.270;7.956;2023-05-22T04:40:15;101496.28;;;17.46;72.35
64298;BME280;50639;53.270;7.956;2023-05-22T04:42:42;101488.59;;;17.50;72.29
64298;BME280;50639;53.270;7.956;2023-05-22T04:45:08;101494.41;;;17.47;71.89
64298;BME280;50639;53.270;7.956;2023-05-22T04:47:34;101489.91;;;17.41;71.88
64298;BME280;50639;53.270;7.956;2023-05-22T04:50:05;101487.75;;;17.49;71.96
64298;BME280;50639;53.270;7.956;2023-05-22T04:52:31;101477.53;;;17.51;71.88
64298;BME280;50639;53.270;7.956;2023-05-22T04:54:57;101480.78;;;17.60;71.42
64298;BME280;50639;53.270;7.956;2023-05-22T04:57:23;101481.84;;;17.65;71.66
64298;BME280;50639;53.270;7.956;2023-05-22T04:59:52;101492.19;;;17.68;70.72
64298;BME280;50639;53.270;7.956;2023-05-22T05:02:19;101485.91;;;17.75;70.80
64298;BME280;50639;53.270;7.956;2023-05-22T05:04:45;101479.06;;;17.72;70.55
64298;BME280;50639;53.270;7.956;2023-05-22T05:07:13;101479.47;;;17.76;70.41
64298;BME280;50639;53.270;7.956;2023-05-22T05:09:42;101480.00;;;17.84;70.32
64298;BME280;50639;53.270;7.956;2023-05-22T05:12:08;101478.97;;;17.85;70.03
64298;BME280;50639;53.270;7.956;2023-05-22T05:14:34;101487.00;;;17.92;69.90
64298;BME280;50639;53.270;7.956;2023-05-22T05:17:00;101495.72;;;17.94;69.80
64298;BME280;50639;53.270;7.956;2023-05-22T05:19:26;101479.88;;;17.97;69.90
64298;BME280;50639;53.270;7.956;2023-05-22T05:21:52;101489.63;;;17.98;69.85
64298;BME280;50639;53.270;7.956;2023-05-22T05:24:19;101492.94;;;18.00;69.58
64298;BME280;50639;53.270;7.956;2023-05-22T05:26:47;101506.06;;;17.97;70.02
64298;BME280;50639;53.270;7.956;2023-05-22T05:29:14;101498.56;;;17.99;69.88
64298;BME280;50639;53.270;7.956;2023-05-22T05:31:47;101508.41;;;17.93;70.27
64298;BME280;50639;53.270;7.956;2023-05-22T05:34:21;101515.97;;;18.03;70.45
64298;BME280;50639;53.270;7.956;2023-05-22T05:36:52;101508.06;;;18.08;69.63
64298;BME280;50639;53.270;7.956;2023-05-22T05:39:19;101529.19;;;18.18;69.75
64298;BME280;50639;53.270;7.956;2023-05-22T05:41:45;101522.03;;;18.23;69.16
64298;BME280;50639;53.270;7.956;2023-05-22T05:44:14;101520.34;;;18.29;69.53
64298;BME280;50639;53.270;7.956;2023-05-22T05:46:40;101523.03;;;18.29;69.01
64298;BME280;50639;53.270;7.956;2023-05-22T05:49:07;101538.97;;;18.37;68.20
64298;BME280;50639;53.270;7.956;2023-05-22T05:51:35;101536.41;;;18.42;68.08
64298;BME280;50639;53.270;7.956;2023-05-22T05:54:02;101544.09;;;18.45;67.47
64298;BME280;50639;53.270;7.956;2023-05-22T05:56:28;101534.59;;;18.36;68.91
64298;BME280;50639;53.270;7.956;2023-05-22T05:58:55;101532.72;;;18.36;69.19
64298;BME280;50639;53.270;7.956;2023-05-22T06:01:47;101536.94;;;18.51;68.54
64298;BME280;50639;53.270;7.956;2023-05-22T06:04:20;101536.28;;;18.55;68.24
64298;BME280;50639;53.270;7.956;2023-05-22T06:06:49;101542.50;;;18.56;68.12
64298;BME280;50639;53.270;7.956;2023-05-22T06:09:25;101537.31;;;18.54;68.06
64298;BME280;50639;53.270;7.956;2023-05-22T06:12:08;101542.28;;;18.57;68.57
64298;BME280;50639;53.270;7.956;2023-05-22T06:14:38;101548.16;;;18.54;68.41
64298;BME280;50639;53.270;7.956;2023-05-22T06:17:06;101534.63;;;18.54;67.91
64298;BME280;50639;53.270;7.956;2023-05-22T06:19:37;101543.19;;;18.51;68.89
64298;BME280;50639;53.270;7.956;2023-05-22T06:22:03;101547.44;;;18.40;69.13
64298;BME280;50639;53.270;7.956;2023-05-22T06:24:29;101541.88;;;18.17;70.36
64298;BME280;50639;53.270;7.956;2023-05-22T06:26:58;101553.22;;;18.26;70.33
64298;BME280;50639;53.270;7.956;2023-05-22T06:29:25;101554.06;;;18.26;70.38
64298;BME280;50639;53.270;7.956;2023-05-22T06:31:52;101566.19;;;18.17;70.64
64298;BME280;50639;53.270;7.956;2023-05-22T06:34:20;101551.31;;;18.08;71.39
64298;BME280;50639;53.270;7.956;2023-05-22T06:36:47;101537.41;;;18.04;71.74
64298;BME280;50639;53.270;7.956;2023-05-22T06:39:17;101528.75;;;17.96;71.50
64298;BME280;50639;53.270;7.956;2023-05-22T06:42:06;101515.28;;;17.89;71.52
64298;BME280;50639;53.270;7.956;2023-05-22T06:45:03;101511.06;;;17.75;72.07
64298;BME280;50639;53.270;7.956;2023-05-22T06:47:45;101517.56;;;17.61;72.79
64298;BME280;50639;53.270;7.956;2023-05-22T06:50:13;101512.97;;;17.68;72.18
64298;BME280;50639;53.270;7.956;2023-05-22T06:52:40;101520.50;;;17.66;72.95
64298;BME280;50639;53.270;7.956;2023-05-22T06:55:10;101517.63;;;17.54;71.96
64298;BME280;50639;53.270;7.956;2023-05-22T06:57:50;101513.06;;;17.55;72.99
64298;BME280;50639;53.270;7.956;2023-05-22T07:00:16;101508.47;;;17.55;72.80
64298;BME280;50639;53.270;7.956;2023-05-22T07:03:10;101504.72;;;17.56;73.91
64298;BME280;50639;53.270;7.956;2023-05-22T07:06:23;101505.28;;;17.40;74.84
64298;BME280;50639;53.270;7.956;2023-05-22T07:08:56;101515.84;;;17.42;75.15
64298;BME280;50639;53.270;7.956;2023-05-22T07:11:24;101519.81;;;17.39;75.35
64298;BME280;50639;53.270;7.956;2023-05-22T07:13:50;101517.75;;;17.41;75.18
64298;BME280;50639;53.270;7.956;2023-05-22T07:16:39;101510.22;;;17.43;75.15
64298;BME280;50639;53.270;7.956;2023-05-22T07:19:17;101513.84;;;17.62;75.05
64298;BME280;50639;53.270;7.956;2023-05-22T07:21:50;101487.94;;;17.23;77.45
64298;BME280;50639;53.270;7.956;2023-05-22T07:24:24;101500.91;;;17.39;77.06
64298;BME280;50639;53.270;7.956;2023-05-22T07:26:57;101491.94;;;17.45;76.56
64298;BME280;50639;53.270;7.956;2023-05-22T07:29:27;101498.88;;;17.59;76.07
64298;BME280;50639;53.270;7.956;2023-05-22T07:31:56;101502.00;;;17.63;76.52
64298;BME280;50639;53.270;7.956;2023-05-22T07:34:33;101493.69;;;17.64;76.07
64298;BME280;50639;53.270;7.956;2023-05-22T07:37:12;101487.97;;;17.48;77.02
64298;BME280;50639;53.270;7.956;2023-05-22T07:39:43;101484.78;;;17.57;76.50
64298;BME280;50639;53.270;7.956;2023-05-22T07:42:18;101489.72;;;17.60;76.51
64298;BME280;50639;53.270;7.956;2023-05-22T07:44:53;101486.63;;;17.63;76.08
64298;BME280;50639;53.270;7.956;2023-05-22T07:47:20;101483.84;;;17.70;75.80
64298;BME280;50639;53.270;7.956;2023-05-22T07:49:46;101473.72;;;17.65;75.51
64298;BME280;50639;53.270;7.956;2023-05-22T07:52:13;101474.16;;;17.62;75.48
64298;BME280;50639;53.270;7.956;2023-05-22T07:54:39;101457.75;;;17.57;75.48
64298;BME280;50639;53.270;7.956;2023-05-22T07:57:07;101448.84;;;17.57;75.42
64298;BME280;50639;53.270;7.956;2023-05-22T07:59:36;101438.06;;;17.50;75.80
64298;BME280;50639;53.270;7.956;2023-05-22T08:02:02;101437.69;;;17.47;76.62
64298;BME280;50639;53.270;7.956;2023-05-22T08:04:28;101429.59;;;17.47;75.62
64298;BME280;50639;53.270;7.956;2023-05-22T08:06:55;101441.09;;;17.60;75.46
64298;BME280;50639;53.270;7.956;2023-05-22T08:09:21;101448.09;;;17.75;75.01
64298;BME280;50639;53.270;7.956;2023-05-22T08:11:47;101459.34;;;17.90;74.22
64298;BME280;50639;53.270;7.956;2023-05-22T08:14:12;101485.50;;;17.96;74.54
64298;BME280;50639;53.270;7.956;2023-05-22T08:16:38;101513.69;;;18.07;74.63
64298;BME280;50639;53.270;7.956;2023-05-22T08:19:04;101523.38;;;18.14;74.83
64298;BME280;50639;53.270;7.956;2023-05-22T08:21:31;101530.00;;;18.18;74.74
64298;BME280;50639;53.270;7.956;2023-05-22T08:23:59;101521.13;;;17.86;75.74
64298;BME280;50639;53.270;7.956;2023-05-22T08:26:25;101516.69;;;18.17;74.38
64298;BME280;50639;53.270;7.956;2023-05-22T08:28:50;101541.06;;;18.35;74.87
64298;BME280;50639;53.270;7.956;2023-05-22T08:31:16;101530.03;;;18.36;74.19
64298;BME280;50639;53.270;7.956;2023-05-22T08:33:42;101537.06;;;18.19;74.54
64298;BME280;50639;53.270;7.956;2023-05-22T08:36:08;101539.53;;;18.39;73.96
64298;BME280;50639;53.270;7.956;2023-05-22T08:38:34;101537.94;;;18.13;74.46
64298;BME280;50639;53.270;7.956;2023-05-22T08:41:01;101536.25;;;18.19;74.22
64298;BME280;50639;53.270;7.956;2023-05-22T08:43:27;101514.66;;;17.94;75.24
64298;BME280;50639;53.270;7.956;2023-05-22T08:46:03;101517.59;;;18.11;73.78
64298;BME280;50639;53.270;7.956;2023-05-22T08:48:30;101510.16;;;18.24;73.68
64298;BME280;50639;53.270;7.956;2023-05-22T08:50:57;101509.47;;;17.61;77.37
64298;BME280;50639;53.270;7.956;2023-05-22T08:53:27;101523.22;;;18.09;76.11
64298;BME280;50639;53.270;7.956;2023-05-22T08:55:53;101522.72;;;18.19;75.67
64298;BME280;50639;53.270;7.956;2023-05-22T08:58:20;101509.50;;;18.11;75.77
64298;BME280;50639;53.270;7.956;2023-05-22T09:00:47;101510.47;;;18.16;76.83
64298;BME280;50639;53.270;7.956;2023-05-22T09:03:13;101512.94;;;18.18;75.95
64298;BME280;50639;53.270;7.956;2023-05-22T09:05:39;101529.66;;;18.51;75.23
64298;BME280;50639;53.270;7.956;2023-05-22T09:08:07;101528.75;;;18.75;74.17
64298;BME280;50639;53.270;7.956;2023-05-22T09:10:33;101539.94;;;18.97;73.91
64298;BME280;50639;53.270;7.956;2023-05-22T09:13:03;101535.91;;;19.18;73.20
64298;BME280;50639;53.270;7.956;2023-05-22T09:15:31;101542.31;;;19.35;72.92
64298;BME280;50639;53.270;7.956;2023-05-22T09:17:58;101548.41;;;19.49;73.12
64298;BME280;50639;53.270;7.956;2023-05-22T09:20:24;101543.88;;;19.61;72.91
64298;BME280;50639;53.270;7.956;2023-05-22T09:22:50;101556.25;;;19.80;73.19
64298;BME280;50639;53.270;7.956;2023-05-22T09:25:19;101548.56;;;19.66;73.84
64298;BME280;50639;53.270;7.956;2023-05-22T09:27:48;101566.94;;;19.64;74.24
64298;BME280;50639;53.270;7.956;2023-05-22T09:30:18;101567.91;;;19.39;75.50
64298;BME280;50639;53.270;7.956;2023-05-22T09:32:53;101558.84;;;19.34;nan
64298;BME280;50639;53.270;7.956;2023-05-22T09:35:20;101564.47;;;19.32;75.58
64298;BME280;50639;53.270;7.956;2023-05-22T09:37:48;101570.13;;;19.31;75.13
64298;BME280;50639;53.270;7.956;2023-05-22T09:40:14;101574.97;;;19.59;73.99
64298;BME280;50639;53.270;7.956;2023-05-22T09:42:42;101570.88;;;19.79;72.95
64298;BME280;50639;53.270;7.956;2023-05-22T09:45:09;101576.69;;;20.18;71.20
64298;BME280;50639;53.270;7.956;2023-05-22T09:47:35;101573.84;;;20.24;71.63
64298;BME280;50639;53.270;7.956;2023-05-22T09:50:02;101574.97;;;20.47;70.24
64298;BME280;50639;53.270;7.956;2023-05-22T09:52:33;101564.06;;;20.58;68.93
64298;BME280;50639;53.270;7.956;2023-05-22T09:55:01;101565.25;;;20.62;68.38
64298;BME280;50639;53.270;7.956;2023-05-22T09:57:30;101572.56;;;20.62;68.46
64298;BME280;50639;53.270;7.956;2023-05-22T09:59:58;101565.94;;;20.70;68.68
64298;BME280;50639;53.270;7.956;2023-05-22T10:02:26;101568.06;;;20.79;67.61
64298;BME280;50639;53.270;7.956;2023-05-22T10:04:53;101556.97;;;20.69;66.53
64298;BME280;50639;53.270;7.956;2023-05-22T10:07:24;101552.03;;;20.66;66.88
64298;BME280;50639;53.270;7.956;2023-05-22T10:10:01;101549.66;;;20.70;67.48
64298;BME280;50639;53.270;7.956;2023-05-22T10:12:32;101546.69;;;20.83;67.10
64298;BME280;50639;53.270;7.956;2023-05-22T10:15:00;101544.53;;;20.85;66.48
64298;BME280;50639;53.270;7.956;2023-05-22T10:17:27;101553.72;;;20.95;66.44
64298;BME280;50639;53.270;7.956;2023-05-22T10:19:55;101560.78;;;21.08;65.34
64298;BME280;50639;53.270;7.956;2023-05-22T10:22:24;101561.44;;;21.15;64.76
64298;BME280;50639;53.270;7.956;2023-05-22T10:24:51;101558.03;;;21.20;65.69
64298;BME280;50639;53.270;7.956;2023-05-22T10:27:18;101553.81;;;21.40;64.79
64298;BME280;50639;53.270;7.956;2023-05-22T10:29:51;101546.06;;;21.49;64.38
64298;BME280;50639;53.270;7.956;2023-05-22T10:32:39;101539.19;;;21.30;62.79
64298;BME280;50639;53.270;7.956;2023-05-22T10:35:19;101532.94;;;21.29;62.43
64298;BME280;50639;53.270;7.956;2023-05-22T10:40:44;101515.25;;;21.44;62.71
64298;BME280;50639;53.270;7.956;2023-05-22T10:43:10;101511.56;;;21.50;61.81
64298;BME280;50639;53.270;7.956;2023-05-22T10:45:37;101498.69;;;21.28;62.35
64298;BME280;50639;53.270;7.956;2023-05-22T10:48:10;101493.00;;;21.47;62.00
64298;BME280;50639;53.270;7.956;2023-05-22T10:50:37;101494.84;;;21.58;63.02
64298;BME280;50639;53.270;7.956;2023-05-22T10:53:22;101489.50;;;21.63;62.78
64298;BME280;50639;53.270;7.956;2023-05-22T10:55:49;101482.56;;;21.72;61.02
64298;BME280;50639;53.270;7.956;2023-05-22T10:58:32;101483.38;;;21.72;60.60
64298;BME280;50639;53.270;7.956;2023-05-22T11:01:11;101487.59;;;21.63;61.25
64298;BME280;50639;53.270;7.956;2023-05-22T11:06:43;101477.44;;;21.75;60.58
64298;BME280;50639;53.270;7.956;2023-05-22T11:09:25;101467.97;;;21.78;61.30
64298;BME280;50639;53.270;7.956;2023-05-22T11:15:02;101468.38;;;21.87;60.49
64298;BME280;50639;53.270;7.956;2023-05-22T11:17:31;101467.56;;;21.86;60.41
64298;BME280;50639;53.270;7.956;2023-05-22T11:22:40;101451.56;;;21.90;60.22
64298;BME280;50639;53.270;7.956;2023-05-22T11:25:12;101458.31;;;21.87;60.23
64298;BME280;50639;53.270;7.956;2023-05-22T11:27:40;101447.94;;;21.67;61.17
64298;BME280;50639;53.270;7.956;2023-05-22T11:30:06;101453.53;;;21.77;61.15
64298;BME280;50639;53.270;7.956;2023-05-22T11:32:35;101456.16;;;21.72;62.15
64298;BME280;50639;53.270;7.956;2023-05-22T11:35:01;101464.25;;;21.67;61.80
64298;BME280;50639;53.270;7.956;2023-05-22T11:37:28;101472.34;;;21.62;62.57
64298;BME280;50639;53.270;7.956;2023-05-22T11:39:59;101474.81;;;21.64;61.65
64298;BME280;50639;53.270;7.956;2023-05-22T11:42:25;101477.69;;;21.57;62.90
64298;BME280;50639;53.270;7.956;2023-05-22T11:44:51;101491.94;;;21.48;62.67
64298;BME280;50639;53.270;7.956;2023-05-22T11:47:17;101478.56;;;20.84;63.39
64298;BME280;50639;53.270;7.956;2023-05-22T11:49:43;101476.41;;;20.86;62.96
64298;BME280;50639;53.270;7.956;2023-05-22T11:52:09;101473.47;;;20.76;64.56
64298;BME280;50639;53.270;7.956;2023-05-22T11:54:35;101475.53;;;20.97;63.08
64298;BME280;50639;53.270;7.956;2023-05-22T11:57:07;101475.53;;;20.69;63.35
64298;BME280;50639;53.270;7.956;2023-05-22T11:59:34;101478.97;;;20.64;63.90
64298;BME280;50639;53.270;7.956;2023-05-22T12:02:00;101478.81;;;20.71;63.64
64298;BME280;50639;53.270;7.956;2023-05-22T12:04:26;101472.88;;;20.46;64.83
64298;BME280;50639;53.270;7.956;2023-05-22T12:06:52;101474.91;;;20.39;64.97
64298;BME280;50639;53.270;7.956;2023-05-22T12:09:19;101478.31;;;20.34;65.91
64298;BME280;50639;53.270;7.956;2023-05-22T12:11:45;101475.97;;;20.38;65.82
64298;BME280;50639;53.270;7.956;2023-05-22T12:14:11;101465.84;;;20.21;66.02
64298;BME280;50639;53.270;7.956;2023-05-22T12:16:37;101463.25;;;19.80;67.25
64298;BME280;50639;53.270;7.956;2023-05-22T12:19:05;101465.28;;;19.96;67.56
64298;BME280;50639;53.270;7.956;2023-05-22T12:21:30;101456.16;;;19.56;68.05
64298;BME280;50639;53.270;7.956;2023-05-22T12:24:01;101460.19;;;19.76;66.92
64298;BME280;50639;53.270;7.956;2023-05-22T12:26:27;101452.97;;;19.70;68.22
64298;BME280;50639;53.270;7.956;2023-05-22T12:28:53;101462.19;;;19.69;68.35
64298;BME280;50639;53.270;7.956;2023-05-22T12:31:22;101461.31;;;19.45;69.82
64298;BME280;50639;53.270;7.956;2023-05-22T12:33:52;101463.97;;;19.52;70.42
64298;BME280;50639;53.270;7.956;2023-05-22T12:36:17;101461.41;;;19.39;70.99
64298;BME280;50639;53.270;7.956;2023-05-22T12:38:44;101454.91;;;19.28;70.27
64298;BME280;50639;53.270;7.956;2023-05-22T12:41:09;101445.47;;;19.19;70.67
64298;BME280;50639;53.270;7.956;2023-05-22T12:43:36;101443.34;;;19.74;69.78
64298;BME280;50639;53.270;7.956;2023-05-22T12:46:02;101436.84;;;19.99;69.20
64298;BME280;50639;53.270;7.956;2023-05-22T12:48:28;101441.56;;;19.80;69.59
64298;BME280;50639;53.270;7.956;2023-05-22T12:50:54;101449.59;;;19.75;69.93
64298;BME280;50639;53.270;7.956;2023-05-22T12:53:19;101448.28;;;19.77;70.46
64298;BME280;50639;53.270;7.956;2023-05-22T12:55:45;101442.75;;;19.96;71.28
64298;BME280;50639;53.270;7.956;2023-05-22T12:58:12;101450.06;;;19.95;71.65
64298;BME280;50639;53.270;7.956;2023-05-22T13:00:37;101447.91;;;20.20;70.22
64298;BME280;50639;53.270;7.956;2023-05-22T13:03:04;101444.13;;;20.21;71.11
64298;BME280;50639;53.270;7.956;2023-05-22T13:05:30;101448.84;;;20.38;70.10
64298;BME280;50639;53.270;7.956;2023-05-22T13:07:56;101444.22;;;20.15;70.51
64298;BME280;50639;53.270;7.956;2023-05-22T13:10:21;101450.06;;;19.95;71.10
64298;BME280;50639;53.270;7.956;2023-05-22T13:12:47;101445.78;;;20.11;71.07
64298;BME280;50639;53.270;7.956;2023-05-22T13:15:15;101453.59;;;19.84;72.06
64298;BME280;50639;53.270;7.956;2023-05-22T13:17:41;101446.06;;;19.86;72.67
64298;BME280;50639;53.270;7.956;2023-05-22T13:20:07;101445.81;;;19.87;71.72
64298;BME280;50639;53.270;7.956;2023-05-22T13:22:33;101434.97;;;19.87;71.53
64298;BME280;50639;53.270;7.956;2023-05-22T13:24:58;101433.69;;;19.78;71.42